createdAt,value
2022-10-22T00:01:12.882Z,7.80
2022-10-22T00:03:41.801Z,8.80
2022-10-22T00:06:09.859Z,7.60
2022-10-22T00:08:37.972Z,7.80
2022-10-22T00:11:24.435Z,7.60
2022-10-22T00:13:52.591Z,6.90
2022-10-22T00:16:20.580Z,7.20
2022-10-22T00:18:48.755Z,6.60
2022-10-22T00:21:16.725Z,7.70
2022-10-22T00:23:44.692Z,7.80
2022-10-22T00:26:13.435Z,7.40
2022-10-22T00:28:41.554Z,6.70
2022-10-22T00:31:10.125Z,8.20
2022-10-22T00:33:38.416Z,7.40
2022-10-22T00:36:07.164Z,8.50
2022-10-22T00:38:35.174Z,7.00
2022-10-22T00:41:03.082Z,7.00
2022-10-22T00:43:31.110Z,8.00
2022-10-22T00:45:59.080Z,7.60
2022-10-22T00:48:31.234Z,8.20
2022-10-22T00:51:07.945Z,7.80
2022-10-22T00:53:49.122Z,7.40
2022-10-22T00:56:17.796Z,7.30
2022-10-22T00:58:51.824Z,7.30
2022-10-22T01:01:30.642Z,7.20
2022-10-22T01:04:00.434Z,7.90
2022-10-22T01:06:34.354Z,8.30
2022-10-22T01:09:36.720Z,7.40
2022-10-22T01:12:45.242Z,7.60
2022-10-22T01:15:46.205Z,6.70
2022-10-22T01:18:58.493Z,7.90
2022-10-22T01:21:38.236Z,8.50
2022-10-22T01:24:33.880Z,7.60
2022-10-22T01:27:13.622Z,7.30
2022-10-22T01:29:53.569Z,9.00
2022-10-22T01:32:26.137Z,8.10
2022-10-22T01:35:09.431Z,8.50
2022-10-22T01:37:50.737Z,7.90
2022-10-22T01:40:21.055Z,8.50
2022-10-22T01:43:15.476Z,8.60
2022-10-22T01:45:49.318Z,7.60
2022-10-22T01:48:36.008Z,8.90
2022-10-22T01:51:25.651Z,8.00
2022-10-22T01:54:29.766Z,8.20
2022-10-22T01:57:32.243Z,7.50
2022-10-22T02:00:08.550Z,7.30
2022-10-22T02:03:08.018Z,8.00
2022-10-22T02:06:02.080Z,8.10
2022-10-22T02:08:35.543Z,8.30
2022-10-22T02:11:05.708Z,8.30
2022-10-22T02:13:59.804Z,7.70
2022-10-22T02:16:36.066Z,8.30
2022-10-22T02:19:23.126Z,8.10
2022-10-22T02:21:52.320Z,7.80
2022-10-22T02:24:22.747Z,8.00
2022-10-22T02:27:29.993Z,7.30
2022-10-22T02:30:20.166Z,7.10
2022-10-22T02:33:33.256Z,7.70
2022-10-22T02:36:03.418Z,7.70
2022-10-22T02:38:34.684Z,7.60
2022-10-22T02:41:03.870Z,7.10
2022-10-22T02:43:43.048Z,7.60
2022-10-22T02:46:11.912Z,8.40
2022-10-22T02:48:39.937Z,7.90
2022-10-22T02:51:08.060Z,7.70
2022-10-22T02:53:36.014Z,7.90
2022-10-22T02:56:04.901Z,6.60
2022-10-22T02:58:32.975Z,8.10
2022-10-22T03:01:01.094Z,7.30
2022-10-22T03:03:29.536Z,9.10
2022-10-22T03:05:57.396Z,7.10
2022-10-22T03:08:25.569Z,7.00
2022-10-22T03:10:53.432Z,8.30
2022-10-22T03:13:21.592Z,8.30
2022-10-22T03:15:51.343Z,6.90
2022-10-22T03:18:19.292Z,7.00
2022-10-22T03:20:47.567Z,7.30
2022-10-22T03:23:19.935Z,8.20
2022-10-22T03:25:49.863Z,7.00
2022-10-22T03:28:19.043Z,7.10
2022-10-22T03:30:46.873Z,8.00
2022-10-22T03:33:14.831Z,7.30
2022-10-22T03:35:47.315Z,7.50
2022-10-22T03:38:16.199Z,7.20
2022-10-22T03:40:46.266Z,8.20
2022-10-22T03:43:14.706Z,7.50
2022-10-22T03:45:42.730Z,7.40
2022-10-22T03:48:10.946Z,6.80
2022-10-22T03:50:38.804Z,6.30
2022-10-22T03:53:08.723Z,7.00
2022-10-22T03:55:38.421Z,7.30
2022-10-22T03:58:06.363Z,7.10
2022-10-22T04:00:36.757Z,7.10
2022-10-22T04:03:05.065Z,6.70
2022-10-22T04:05:34.160Z,7.00
2022-10-22T04:08:02.669Z,6.90
2022-10-22T04:10:30.505Z,6.80
2022-10-22T04:12:58.397Z,6.80
2022-10-22T04:15:28.254Z,6.90
2022-10-22T04:17:56.412Z,6.90
2022-10-22T04:20:24.435Z,7.90
2022-10-22T04:22:52.623Z,6.80
2022-10-22T04:25:20.579Z,6.30
2022-10-22T04:27:48.450Z,7.70
2022-10-22T04:30:16.517Z,6.50
2022-10-22T04:32:44.449Z,6.50
2022-10-22T04:35:12.475Z,6.60
2022-10-22T04:37:40.565Z,6.80
2022-10-22T04:40:10.110Z,6.30
2022-10-22T04:42:37.916Z,6.20
2022-10-22T04:45:07.015Z,6.60
2022-10-22T04:47:34.827Z,6.80
2022-10-22T04:50:03.920Z,6.80
2022-10-22T04:52:32.441Z,6.00
2022-10-22T04:55:00.246Z,6.30
2022-10-22T04:57:31.759Z,7.40
2022-10-22T04:59:59.637Z,6.30
2022-10-22T05:02:27.700Z,6.00
2022-10-22T05:04:55.553Z,6.40
2022-10-22T05:07:25.115Z,5.90
2022-10-22T05:09:54.160Z,7.40
2022-10-22T05:12:22.139Z,6.70
2022-10-22T05:14:50.054Z,7.00
2022-10-22T05:17:17.970Z,5.80
2022-10-22T05:19:45.839Z,6.20
2022-10-22T05:22:13.769Z,6.50
2022-10-22T05:24:41.877Z,6.10
2022-10-22T05:27:09.819Z,6.60
2022-10-22T05:29:38.027Z,5.60
2022-10-22T05:32:05.991Z,6.00
2022-10-22T05:34:36.223Z,6.00
2022-10-22T05:37:04.325Z,6.20
2022-10-22T05:39:32.255Z,6.00
2022-10-22T05:42:00.035Z,6.10
2022-10-22T05:44:27.988Z,5.70
2022-10-22T05:46:55.890Z,6.10
2022-10-22T05:49:23.678Z,5.80
2022-10-22T05:51:51.644Z,6.60
2022-10-22T05:54:22.440Z,6.20
2022-10-22T05:56:50.597Z,6.00
2022-10-22T05:59:18.880Z,7.00
2022-10-22T06:01:46.876Z,6.90
2022-10-22T06:04:16.356Z,6.40
2022-10-22T06:06:47.928Z,6.40
2022-10-22T06:12:12.366Z,6.40
2022-10-22T06:14:40.566Z,6.50
2022-10-22T06:17:09.585Z,6.40
2022-10-22T06:19:37.862Z,6.20
2022-10-22T06:22:05.932Z,7.00
2022-10-22T06:24:34.104Z,5.50
2022-10-22T06:27:02.394Z,7.10
2022-10-22T06:29:30.251Z,6.60
2022-10-22T06:31:58.173Z,6.40
2022-10-22T06:34:26.290Z,6.40
2022-10-22T06:36:54.259Z,6.10
2022-10-22T06:39:22.133Z,5.90
2022-10-22T06:41:49.992Z,6.20
2022-10-22T06:44:20.162Z,6.70
2022-10-22T06:46:53.101Z,6.30
2022-10-22T06:49:21.921Z,7.40
2022-10-22T06:51:54.697Z,6.50
2022-10-22T06:54:23.871Z,5.60
2022-10-22T06:56:51.748Z,6.90
2022-10-22T06:59:20.200Z,8.90
2022-10-22T07:01:48.436Z,15.50
2022-10-22T07:04:16.568Z,14.30
2022-10-22T07:06:44.538Z,11.90
2022-10-22T07:09:12.575Z,9.30
2022-10-22T07:11:44.709Z,9.50
2022-10-22T07:14:14.496Z,12.00
2022-10-22T07:16:43.294Z,9.90
2022-10-22T07:19:12.796Z,10.60
2022-10-22T07:21:41.262Z,8.10
2022-10-22T07:24:09.331Z,10.30
2022-10-22T07:26:37.508Z,10.70
2022-10-22T07:29:06.289Z,12.40
2022-10-22T07:31:34.573Z,11.00
2022-10-22T07:34:02.663Z,11.10
2022-10-22T07:36:30.615Z,8.80
2022-10-22T07:39:00.397Z,13.00
2022-10-22T07:41:31.264Z,13.50
2022-10-22T07:43:59.747Z,13.40
2022-10-22T07:46:28.435Z,13.80
2022-10-22T07:48:56.601Z,14.60
2022-10-22T07:51:24.885Z,17.10
2022-10-22T07:53:52.853Z,13.50
2022-10-22T07:56:21.720Z,16.00
2022-10-22T07:58:49.641Z,17.40
2022-10-22T08:01:17.835Z,18.90
2022-10-22T08:03:45.990Z,18.30
2022-10-22T08:06:15.055Z,22.10
2022-10-22T08:08:49.635Z,20.20
2022-10-22T08:11:17.541Z,19.50
2022-10-22T08:13:45.914Z,16.80
2022-10-22T08:16:15.031Z,16.70
2022-10-22T08:18:43.058Z,19.20
2022-10-22T08:21:13.111Z,14.90
2022-10-22T08:23:41.589Z,16.00
2022-10-22T08:26:11.119Z,15.70
2022-10-22T08:28:39.286Z,16.00
2022-10-22T08:31:08.993Z,14.90
2022-10-22T08:33:39.069Z,13.60
2022-10-22T08:36:08.227Z,13.90
2022-10-22T08:38:36.370Z,15.40
2022-10-22T08:41:18.946Z,14.90
2022-10-22T08:44:11.635Z,13.50
2022-10-22T08:46:42.259Z,15.10
2022-10-22T08:49:25.043Z,17.30
2022-10-22T08:51:53.877Z,16.30
2022-10-22T08:54:58.990Z,15.30
2022-10-22T08:57:54.122Z,18.20
2022-10-22T09:00:33.147Z,16.70
2022-10-22T09:03:22.630Z,16.80
2022-10-22T09:06:11.481Z,17.50
2022-10-22T09:08:43.410Z,16.30
2022-10-22T09:11:18.559Z,19.00
2022-10-22T09:13:48.569Z,21.20
2022-10-22T09:16:36.879Z,20.90
2022-10-22T09:19:36.454Z,22.80
2022-10-22T09:22:18.660Z,17.80
2022-10-22T09:25:16.381Z,23.00
2022-10-22T09:27:44.587Z,20.40
2022-10-22T09:30:22.915Z,18.50
2022-10-22T09:33:16.266Z,22.40
2022-10-22T09:35:55.660Z,24.70
2022-10-22T09:38:52.589Z,23.00
2022-10-22T09:41:26.126Z,21.90
2022-10-22T09:43:54.186Z,23.90
2022-10-22T09:46:28.223Z,24.20
2022-10-22T09:49:03.182Z,20.60
2022-10-22T09:51:53.471Z,23.70
2022-10-22T09:54:33.733Z,20.90
2022-10-22T09:57:16.768Z,24.60
2022-10-22T09:59:50.049Z,22.40
2022-10-22T10:02:37.636Z,19.50
2022-10-22T10:05:09.299Z,20.00
2022-10-22T10:07:37.578Z,22.00
2022-10-22T10:10:33.780Z,20.80
2022-10-22T10:13:28.641Z,20.00
2022-10-22T10:16:38.201Z,17.40
2022-10-22T10:19:44.861Z,16.70
2022-10-22T10:22:39.682Z,16.30
2022-10-22T10:25:41.415Z,16.20
2022-10-22T10:28:38.690Z,16.40
2022-10-22T10:31:26.296Z,16.40
2022-10-22T10:34:12.916Z,17.70
2022-10-22T10:37:16.232Z,19.00
2022-10-22T10:40:28.522Z,15.50
2022-10-22T10:43:45.299Z,15.80
2022-10-22T10:46:46.114Z,15.30
2022-10-22T10:49:26.418Z,16.90
2022-10-22T10:52:22.288Z,15.00
2022-10-22T10:55:20.802Z,16.40
2022-10-22T10:58:48.926Z,14.90
2022-10-22T11:01:51.343Z,18.20
2022-10-22T11:04:47.785Z,15.90
2022-10-22T11:07:34.256Z,17.20
2022-10-22T11:10:24.093Z,15.20
2022-10-22T11:12:59.121Z,14.60
2022-10-22T11:15:39.414Z,14.90
2022-10-22T11:18:42.131Z,14.10
2022-10-22T11:21:12.609Z,13.80
2022-10-22T11:24:13.263Z,15.70
2022-10-22T11:26:56.834Z,14.90
2022-10-22T11:29:33.881Z,13.80
2022-10-22T11:32:03.914Z,15.50
2022-10-22T11:34:42.503Z,13.90
2022-10-22T11:37:12.684Z,14.90
2022-10-22T11:39:40.811Z,14.90
2022-10-22T11:42:22.398Z,14.80
2022-10-22T11:45:06.248Z,12.60
2022-10-22T11:47:56.955Z,16.00
2022-10-22T11:51:01.220Z,15.10
2022-10-22T11:53:37.339Z,13.00
2022-10-22T11:56:10.024Z,17.10
2022-10-22T11:58:39.563Z,16.20
2022-10-22T12:01:07.767Z,14.50
2022-10-22T12:03:38.117Z,12.30
2022-10-22T12:06:11.845Z,13.50
2022-10-22T12:08:58.471Z,13.70
2022-10-22T12:11:53.325Z,13.30
2022-10-22T12:14:35.445Z,15.20
2022-10-22T12:17:13.892Z,14.60
2022-10-22T12:19:50.223Z,11.90
2022-10-22T12:22:26.469Z,13.00
2022-10-22T12:25:00.837Z,13.20
2022-10-22T12:27:37.233Z,13.10
2022-10-22T12:30:35.072Z,10.10
2022-10-22T12:33:08.250Z,13.30
2022-10-22T12:35:45.317Z,15.50
2022-10-22T12:38:20.579Z,12.10
2022-10-22T12:40:51.115Z,14.60
2022-10-22T12:43:27.297Z,13.60
2022-10-22T12:45:57.877Z,15.10
2022-10-22T12:48:34.498Z,14.30
2022-10-22T12:51:08.250Z,16.50
2022-10-22T12:53:45.763Z,13.10
2022-10-22T12:56:21.997Z,13.50
2022-10-22T12:58:59.239Z,12.60
2022-10-22T13:01:32.447Z,14.10
2022-10-22T13:04:14.886Z,15.00
2022-10-22T13:07:12.347Z,14.20
2022-10-22T13:09:55.654Z,14.20
2022-10-22T13:12:37.400Z,13.50
2022-10-22T13:15:39.902Z,11.30
2022-10-22T13:18:21.135Z,11.20
2022-10-22T13:21:01.956Z,12.30
2022-10-22T13:23:34.080Z,12.00
2022-10-22T13:26:16.922Z,10.70
2022-10-22T13:28:54.298Z,13.20
2022-10-22T13:31:38.011Z,12.20
2022-10-22T13:34:11.900Z,13.30
2022-10-22T13:36:42.247Z,11.60
2022-10-22T13:39:19.563Z,10.80
2022-10-22T13:41:50.482Z,14.60
2022-10-22T13:44:19.923Z,10.90
2022-10-22T13:46:49.180Z,10.40
2022-10-22T13:49:23.551Z,12.50
2022-10-22T13:51:51.877Z,11.50
2022-10-22T13:54:23.844Z,13.10
2022-10-22T13:56:53.740Z,11.00
2022-10-22T13:59:23.788Z,9.70
2022-10-22T14:01:53.277Z,11.20
2022-10-22T14:04:21.262Z,11.50
2022-10-22T14:06:49.202Z,11.30
2022-10-22T14:09:22.421Z,10.60
2022-10-22T14:11:50.334Z,11.40
2022-10-22T14:14:19.065Z,12.10
2022-10-22T14:16:47.033Z,11.10
2022-10-22T14:19:18.181Z,11.80
2022-10-22T14:21:49.208Z,10.60
2022-10-22T14:24:17.298Z,9.80
2022-10-22T14:26:46.690Z,10.20
2022-10-22T14:29:14.626Z,10.40
2022-10-22T14:31:44.826Z,11.20
2022-10-22T14:34:16.143Z,11.10
2022-10-22T14:36:44.603Z,9.50
2022-10-22T14:39:14.043Z,11.20
2022-10-22T14:41:43.557Z,11.40
2022-10-22T14:44:14.484Z,10.30
2022-10-22T14:46:44.710Z,10.10
2022-10-22T14:49:13.645Z,8.80
2022-10-22T14:51:42.360Z,9.70
2022-10-22T14:54:10.499Z,9.00
2022-10-22T14:56:39.028Z,8.50
2022-10-22T14:59:07.297Z,10.70
2022-10-22T15:01:35.779Z,8.70
2022-10-22T15:04:04.156Z,9.40
2022-10-22T15:06:32.553Z,8.60
2022-10-22T15:09:00.532Z,9.60
2022-10-22T15:11:28.892Z,10.20
2022-10-22T15:13:57.264Z,8.30
2022-10-22T15:16:26.577Z,9.60
2022-10-22T15:18:54.850Z,9.70
2022-10-22T15:21:23.943Z,8.90
2022-10-22T15:23:52.414Z,8.70
2022-10-22T15:26:20.393Z,9.00
2022-10-22T15:28:48.250Z,8.70
2022-10-22T15:31:16.206Z,8.10
2022-10-22T15:33:44.787Z,8.40
2022-10-22T15:36:17.117Z,8.20
2022-10-22T15:38:44.998Z,7.80
2022-10-22T15:41:13.617Z,7.50
2022-10-22T15:43:42.332Z,7.50
2022-10-22T15:46:18.999Z,8.00
2022-10-22T15:48:47.368Z,8.30
2022-10-22T15:51:19.202Z,11.30
2022-10-22T15:53:58.833Z,10.90
2022-10-22T15:56:29.804Z,14.10
2022-10-22T15:59:04.170Z,16.40
2022-10-22T16:01:34.289Z,16.00
2022-10-22T16:04:03.000Z,25.30
2022-10-22T16:06:34.833Z,22.50
2022-10-22T16:09:17.247Z,19.00
2022-10-22T16:11:46.022Z,22.10
2022-10-22T16:14:17.396Z,21.60
2022-10-22T16:16:50.188Z,22.20
2022-10-22T16:19:22.342Z,18.40
2022-10-22T16:21:53.238Z,23.20
2022-10-22T16:24:23.211Z,22.40
2022-10-22T16:26:53.418Z,23.70
2022-10-22T16:29:21.572Z,21.60
2022-10-22T16:31:50.597Z,21.60
2022-10-22T16:34:18.399Z,17.00
2022-10-22T16:36:46.610Z,17.90
2022-10-22T16:39:14.954Z,20.00
2022-10-22T16:41:43.131Z,18.60
2022-10-22T16:44:13.588Z,15.80
2022-10-22T16:46:41.816Z,18.80
2022-10-22T16:49:13.185Z,18.90
2022-10-22T16:51:41.159Z,19.30
2022-10-22T16:54:13.527Z,21.20
2022-10-22T16:56:42.121Z,16.40
2022-10-22T16:59:10.281Z,17.20
2022-10-22T17:01:41.273Z,15.40
2022-10-22T17:04:10.306Z,19.00
2022-10-22T17:06:38.999Z,14.90
2022-10-22T17:09:08.882Z,16.40
2022-10-22T17:11:40.166Z,17.10
2022-10-22T17:14:11.739Z,19.20
2022-10-22T17:16:39.854Z,18.10
2022-10-22T17:19:08.074Z,16.10
2022-10-22T17:21:36.066Z,16.40
2022-10-22T17:24:04.443Z,14.70
2022-10-22T17:26:34.771Z,17.10
2022-10-22T17:29:04.216Z,15.60
2022-10-22T17:31:37.553Z,17.50
2022-10-22T17:34:10.423Z,13.80
2022-10-22T17:36:38.598Z,15.60
2022-10-22T17:39:09.153Z,13.80
2022-10-22T17:41:37.869Z,14.20
2022-10-22T17:44:12.458Z,16.00
2022-10-22T17:46:41.026Z,14.90
2022-10-22T17:49:18.758Z,14.00
2022-10-22T17:51:47.677Z,14.60
2022-10-22T17:54:15.847Z,12.50
2022-10-22T17:56:44.578Z,14.50
2022-10-22T17:59:16.180Z,13.80
2022-10-22T18:01:48.845Z,14.20
2022-10-22T18:04:20.218Z,15.60
2022-10-22T18:06:49.154Z,15.10
2022-10-22T18:09:21.224Z,13.90
2022-10-22T18:11:52.152Z,11.90
2022-10-22T18:14:22.785Z,14.30
2022-10-22T18:16:52.195Z,13.70
2022-10-22T18:19:24.879Z,11.90
2022-10-22T18:21:53.554Z,12.40
2022-10-22T18:24:23.681Z,12.00
2022-10-22T18:26:52.518Z,12.00
2022-10-22T18:29:20.948Z,12.00
2022-10-22T18:31:49.943Z,12.30
2022-10-22T18:34:20.398Z,13.30
2022-10-22T18:36:51.522Z,14.00
2022-10-22T18:39:20.505Z,11.90
2022-10-22T18:41:48.800Z,10.70
2022-10-22T18:44:18.099Z,10.90
2022-10-22T18:46:46.056Z,10.30
2022-10-22T18:49:18.518Z,11.10
2022-10-22T18:51:52.603Z,10.80
2022-10-22T18:54:24.223Z,9.50
2022-10-22T18:57:00.573Z,11.60
2022-10-22T18:59:31.157Z,10.60
2022-10-22T19:01:59.841Z,9.80
2022-10-22T19:04:36.784Z,10.00
2022-10-22T19:07:05.974Z,9.20
2022-10-22T19:09:34.235Z,9.60
2022-10-22T19:12:02.507Z,10.00
2022-10-22T19:14:31.623Z,8.80
2022-10-22T19:16:59.473Z,8.00
2022-10-22T19:19:27.907Z,8.90
2022-10-22T19:21:56.854Z,9.50
2022-10-22T19:24:25.428Z,7.80
2022-10-22T19:26:54.016Z,8.80
2022-10-22T19:29:22.256Z,7.40
2022-10-22T19:31:53.501Z,8.90
2022-10-22T19:34:21.820Z,6.40
2022-10-22T19:36:51.928Z,6.90
2022-10-22T19:39:20.924Z,8.00
2022-10-22T19:41:49.100Z,7.40
2022-10-22T19:44:18.024Z,8.80
2022-10-22T19:46:45.965Z,7.50
2022-10-22T19:49:18.849Z,8.00
2022-10-22T19:51:50.398Z,7.50
2022-10-22T19:54:19.808Z,7.90
2022-10-22T19:56:48.427Z,7.40
2022-10-22T19:59:17.932Z,7.90
2022-10-22T20:01:46.170Z,6.90
2022-10-22T20:04:17.688Z,7.20
2022-10-22T20:06:45.999Z,7.40
2022-10-22T20:09:14.368Z,7.10
2022-10-22T20:11:44.099Z,7.10
2022-10-22T20:14:14.415Z,6.40
2022-10-22T20:16:43.241Z,6.60
2022-10-22T20:19:16.400Z,6.30
2022-10-22T20:21:49.086Z,6.30
2022-10-22T20:24:17.192Z,6.00
2022-10-22T20:26:47.265Z,6.40
2022-10-22T20:29:16.459Z,6.10
2022-10-22T20:31:45.048Z,6.60
2022-10-22T20:34:13.840Z,6.60
2022-10-22T20:36:41.906Z,6.10
2022-10-22T20:39:15.176Z,7.20
2022-10-22T20:41:43.307Z,6.50
2022-10-22T20:44:18.284Z,6.10
2022-10-22T20:46:46.441Z,5.60
2022-10-22T20:49:17.470Z,6.10
2022-10-22T20:51:45.532Z,6.10
2022-10-22T20:54:15.641Z,5.80
2022-10-22T20:56:45.533Z,5.60
2022-10-22T20:59:13.910Z,5.80
2022-10-22T21:01:47.908Z,5.50
2022-10-22T21:04:19.800Z,5.70
2022-10-22T21:06:50.028Z,5.70
2022-10-22T21:09:18.106Z,5.80
2022-10-22T21:11:47.409Z,6.00
2022-10-22T21:14:20.136Z,6.20
2022-10-22T21:16:51.201Z,6.50
2022-10-22T21:19:21.937Z,6.40
2022-10-22T21:21:50.209Z,7.60
2022-10-22T21:24:18.904Z,7.70
2022-10-22T21:26:47.482Z,7.70
2022-10-22T21:29:15.818Z,7.90
2022-10-22T21:31:44.970Z,9.20
2022-10-22T21:34:15.026Z,7.80
2022-10-22T21:36:44.994Z,9.10
2022-10-22T21:39:14.089Z,8.40
2022-10-22T21:41:44.001Z,8.70
2022-10-22T21:44:12.688Z,9.00
2022-10-22T21:46:40.950Z,9.70
2022-10-22T21:49:09.764Z,9.10
2022-10-22T21:51:38.849Z,9.70
2022-10-22T21:54:07.555Z,8.90
2022-10-22T21:56:37.307Z,8.30
2022-10-22T21:59:08.149Z,8.30
2022-10-22T22:01:37.067Z,7.80
2022-10-22T22:04:06.677Z,13.20
2022-10-22T22:06:35.562Z,8.30
2022-10-22T22:09:05.813Z,7.00
2022-10-22T22:11:34.393Z,8.50
2022-10-22T22:14:04.436Z,8.70
2022-10-22T22:16:35.199Z,6.70
2022-10-22T22:19:11.811Z,10.40
2022-10-22T22:21:42.457Z,7.40
2022-10-22T22:24:13.299Z,7.90
2022-10-22T22:26:41.865Z,6.80
2022-10-22T22:29:11.258Z,6.70
2022-10-22T22:31:40.562Z,7.40
2022-10-22T22:34:15.515Z,7.50
2022-10-22T22:36:47.568Z,7.30
2022-10-22T22:39:21.894Z,7.10
2022-10-22T22:41:50.363Z,7.20
2022-10-22T22:44:18.848Z,7.50
2022-10-22T22:46:47.124Z,7.70
2022-10-22T22:49:16.021Z,5.90
2022-10-22T22:51:44.920Z,6.70
2022-10-22T22:54:13.111Z,6.00
2022-10-22T22:56:42.788Z,5.60
2022-10-22T22:59:12.413Z,6.70
2022-10-22T23:01:41.661Z,5.40
2022-10-22T23:04:25.749Z,6.10
2022-10-22T23:06:54.939Z,6.20
2022-10-22T23:09:23.012Z,6.00
2022-10-22T23:11:51.340Z,6.30
2022-10-22T23:14:20.661Z,6.20
2022-10-22T23:16:52.292Z,6.30
2022-10-22T23:19:22.925Z,7.10
2022-10-22T23:21:54.727Z,7.30
2022-10-22T23:24:29.049Z,6.90
2022-10-22T23:27:03.905Z,5.90
2022-10-22T23:29:36.511Z,7.60
2022-10-22T23:32:12.070Z,6.30
2022-10-22T23:34:40.414Z,7.50
2022-10-22T23:37:12.009Z,7.80
2022-10-22T23:39:39.922Z,7.80
2022-10-22T23:42:07.880Z,7.20
2022-10-22T23:44:35.798Z,6.40
2022-10-22T23:47:03.825Z,7.90
2022-10-22T23:49:31.889Z,7.40
2022-10-22T23:51:59.759Z,7.20
2022-10-22T23:54:27.729Z,6.00
2022-10-22T23:56:55.558Z,9.20
2022-10-22T23:59:23.768Z,7.10
